sensor_id;sensor_type;location;lat;lon;timestamp;pressure;altitude;pressure_sealevel;temperature;humidity
47716;BME280;33476;50.984;3.538;2023-04-25T00:02:07;101253.66;;;12.39;59.12
47716;BME280;33476;50.984;3.538;2023-04-25T00:04:33;101257.13;;;12.40;59.14
47716;BME280;33476;50.984;3.538;2023-04-25T00:06:59;101265.91;;;12.38;59.23
47716;BME280;33476;50.984;3.538;2023-04-25T00:09:27;101254.66;;;12.36;59.02
47716;BME280;33476;50.984;3.538;2023-04-25T00:11:52;101252.81;;;12.38;58.80
47716;BME280;33476;50.984;3.538;2023-04-25T00:14:18;101252.72;;;12.40;58.84
47716;BME280;33476;50.984;3.538;2023-04-25T00:16:43;101255.34;;;12.40;58.93
47716;BME280;33476;50.984;3.538;2023-04-25T00:19:09;101260.66;;;12.38;59.04
47716;BME280;33476;50.984;3.538;2023-04-25T00:21:35;101256.25;;;12.39;58.63
47716;BME280;33476;50.984;3.538;2023-04-25T00:24:00;101263.28;;;12.38;58.87
47716;BME280;33476;50.984;3.538;2023-04-25T00:26:26;101259.97;;;12.35;58.70
47716;BME280;33476;50.984;3.538;2023-04-25T00:28:52;101262.59;;;12.35;59.00
47716;BME280;33476;50.984;3.538;2023-04-25T00:31:17;101262.59;;;12.35;58.68
47716;BME280;33476;50.984;3.538;2023-04-25T00:33:43;101264.44;;;12.33;58.72
47716;BME280;33476;50.984;3.538;2023-04-25T00:36:08;101259.34;;;12.30;58.99
47716;BME280;33476;50.984;3.538;2023-04-25T00:38:34;101264.66;;;12.28;59.12
47716;BME280;33476;50.984;3.538;2023-04-25T00:40:59;101261.19;;;12.28;59.09
47716;BME280;33476;50.984;3.538;2023-04-25T00:43:26;101263.81;;;12.28;59.18
47716;BME280;33476;50.984;3.538;2023-04-25T00:45:52;101262.81;;;12.30;58.98
47716;BME280;33476;50.984;3.538;2023-04-25T00:48:17;101266.34;;;12.29;58.96
47716;BME280;33476;50.984;3.538;2023-04-25T00:50:54;101269.97;;;12.27;59.21
47716;BME280;33476;50.984;3.538;2023-04-25T00:53:21;101271.66;;;12.28;58.94
47716;BME280;33476;50.984;3.538;2023-04-25T00:55:47;101271.75;;;12.26;58.97
47716;BME280;33476;50.984;3.538;2023-04-25T00:58:13;101270.91;;;12.26;58.97
47716;BME280;33476;50.984;3.538;2023-04-25T01:00:39;101273.44;;;12.27;58.81
47716;BME280;33476;50.984;3.538;2023-04-25T01:03:05;101272.59;;;12.27;59.18
47716;BME280;33476;50.984;3.538;2023-04-25T01:05:31;101275.28;;;12.25;59.18
47716;BME280;33476;50.984;3.538;2023-04-25T01:07:56;101277.91;;;12.25;58.99
47716;BME280;33476;50.984;3.538;2023-04-25T01:10:22;101271.75;;;12.26;58.86
47716;BME280;33476;50.984;3.538;2023-04-25T01:12:48;101281.38;;;12.26;59.06
47716;BME280;33476;50.984;3.538;2023-04-25T01:15:14;101279.59;;;12.26;58.96
47716;BME280;33476;50.984;3.538;2023-04-25T01:17:40;101286.59;;;12.26;58.83
47716;BME280;33476;50.984;3.538;2023-04-25T01:20:06;101290.16;;;12.25;58.65
47716;BME280;33476;50.984;3.538;2023-04-25T01:22:32;101291.13;;;12.22;58.84
47716;BME280;33476;50.984;3.538;2023-04-25T01:24:58;101292.81;;;12.23;58.99
47716;BME280;33476;50.984;3.538;2023-04-25T01:27:25;101291.19;;;12.21;58.92
47716;BME280;33476;50.984;3.538;2023-04-25T01:29:51;101298.28;;;12.19;58.91
47716;BME280;33476;50.984;3.538;2023-04-25T01:32:16;101300.19;;;12.15;59.08
47716;BME280;33476;50.984;3.538;2023-04-25T01:34:42;101301.00;;;12.17;59.18
47716;BME280;33476;50.984;3.538;2023-04-25T01:37:08;101298.41;;;12.16;59.04
47716;BME280;33476;50.984;3.538;2023-04-25T01:39:33;101302.88;;;12.14;59.11
47716;BME280;33476;50.984;3.538;2023-04-25T01:41:59;101302.97;;;12.12;59.21
47716;BME280;33476;50.984;3.538;2023-04-25T01:44:25;101303.03;;;12.11;58.99
47716;BME280;33476;50.984;3.538;2023-04-25T01:46:51;101300.25;;;12.14;58.80
47716;BME280;33476;50.984;3.538;2023-04-25T01:49:17;101313.44;;;12.12;58.68
47716;BME280;33476;50.984;3.538;2023-04-25T01:51:42;101309.19;;;12.09;58.41
47716;BME280;33476;50.984;3.538;2023-04-25T01:54:09;101310.25;;;12.05;58.13
47716;BME280;33476;50.984;3.538;2023-04-25T01:56:37;101313.09;;;12.01;57.82
47716;BME280;33476;50.984;3.538;2023-04-25T01:59:04;101311.25;;;12.03;57.62
47716;BME280;33476;50.984;3.538;2023-04-25T02:01:30;101313.84;;;12.03;57.23
47716;BME280;33476;50.984;3.538;2023-04-25T02:03:55;101313.09;;;12.01;57.30
47716;BME280;33476;50.984;3.538;2023-04-25T02:06:21;101316.63;;;12.00;57.14
47716;BME280;33476;50.984;3.538;2023-04-25T02:08:46;101310.66;;;11.96;56.85
47716;BME280;33476;50.984;3.538;2023-04-25T02:11:12;101314.22;;;11.95;57.09
47716;BME280;33476;50.984;3.538;2023-04-25T02:13:37;101319.59;;;11.92;57.19
47716;BME280;33476;50.984;3.538;2023-04-25T02:16:03;101314.34;;;11.92;57.33
47716;BME280;33476;50.984;3.538;2023-04-25T02:18:28;101320.56;;;11.90;57.34
47716;BME280;33476;50.984;3.538;2023-04-25T02:20:54;101322.47;;;11.86;57.50
47716;BME280;33476;50.984;3.538;2023-04-25T02:23:19;101320.19;;;11.78;57.67
47716;BME280;33476;50.984;3.538;2023-04-25T02:25:45;101318.56;;;11.76;57.73
47716;BME280;33476;50.984;3.538;2023-04-25T02:28:10;101323.81;;;11.74;57.87
47716;BME280;33476;50.984;3.538;2023-04-25T02:30:36;101317.91;;;11.71;58.22
47716;BME280;33476;50.984;3.538;2023-04-25T02:33:02;101324.06;;;11.70;58.45
47716;BME280;33476;50.984;3.538;2023-04-25T02:35:27;101325.91;;;11.68;58.46
47716;BME280;33476;50.984;3.538;2023-04-25T02:37:53;101319.00;;;11.65;58.55
47716;BME280;33476;50.984;3.538;2023-04-25T02:40:18;101314.78;;;11.63;58.80
47716;BME280;33476;50.984;3.538;2023-04-25T02:42:43;101310.53;;;11.60;58.65
47716;BME280;33476;50.984;3.538;2023-04-25T02:45:11;101308.88;;;11.58;58.65
47716;BME280;33476;50.984;3.538;2023-04-25T02:47:36;101307.13;;;11.58;58.68
47716;BME280;33476;50.984;3.538;2023-04-25T02:50:02;101310.59;;;11.59;58.65
47716;BME280;33476;50.984;3.538;2023-04-25T02:52:28;101310.66;;;11.57;58.86
47716;BME280;33476;50.984;3.538;2023-04-25T02:54:53;101314.19;;;11.56;58.95
47716;BME280;33476;50.984;3.538;2023-04-25T02:57:18;101312.56;;;11.53;58.96
47716;BME280;33476;50.984;3.538;2023-04-25T02:59:44;101311.91;;;11.48;59.23
47716;BME280;33476;50.984;3.538;2023-04-25T03:02:09;101314.75;;;11.44;59.15
47716;BME280;33476;50.984;3.538;2023-04-25T03:04:35;101313.03;;;11.43;59.40
47716;BME280;33476;50.984;3.538;2023-04-25T03:07:00;101320.09;;;11.41;59.40
47716;BME280;33476;50.984;3.538;2023-04-25T03:09:26;101319.16;;;11.42;59.45
47716;BME280;33476;50.984;3.538;2023-04-25T03:11:52;101318.47;;;11.38;59.47
47716;BME280;33476;50.984;3.538;2023-04-25T03:14:17;101327.16;;;11.39;59.51
47716;BME280;33476;50.984;3.538;2023-04-25T03:16:42;101326.31;;;11.38;59.66
47716;BME280;33476;50.984;3.538;2023-04-25T03:19:08;101322.78;;;11.39;59.65
47716;BME280;33476;50.984;3.538;2023-04-25T03:21:35;101330.63;;;11.39;59.51
47716;BME280;33476;50.984;3.538;2023-04-25T03:24:02;101336.78;;;11.38;59.68
47716;BME280;33476;50.984;3.538;2023-04-25T03:26:28;101340.31;;;11.37;59.59
47716;BME280;33476;50.984;3.538;2023-04-25T03:28:53;101342.16;;;11.35;59.56
47716;BME280;33476;50.984;3.538;2023-04-25T03:31:18;101346.53;;;11.35;59.75
47716;BME280;33476;50.984;3.538;2023-04-25T03:33:44;101344.81;;;11.34;59.60
47716;BME280;33476;50.984;3.538;2023-04-25T03:36:09;101349.25;;;11.32;59.39
47716;BME280;33476;50.984;3.538;2023-04-25T03:38:35;101346.78;;;11.29;59.47
47716;BME280;33476;50.984;3.538;2023-04-25T03:41:01;101345.09;;;11.28;58.96
47716;BME280;33476;50.984;3.538;2023-04-25T03:43:27;101344.41;;;11.22;58.57
47716;BME280;33476;50.984;3.538;2023-04-25T03:45:52;101348.72;;;11.23;58.61
47716;BME280;33476;50.984;3.538;2023-04-25T03:48:17;101342.72;;;11.21;58.64
47716;BME280;33476;50.984;3.538;2023-04-25T03:50:43;101349.72;;;11.21;58.44
47716;BME280;33476;50.984;3.538;2023-04-25T03:53:08;101346.25;;;11.20;58.46
47716;BME280;33476;50.984;3.538;2023-04-25T03:55:33;101350.56;;;11.21;58.39
47716;BME280;33476;50.984;3.538;2023-04-25T03:57:59;101348.78;;;11.22;58.31
47716;BME280;33476;50.984;3.538;2023-04-25T04:00:25;101348.03;;;11.20;58.39
47716;BME280;33476;50.984;3.538;2023-04-25T04:02:51;101348.09;;;11.18;58.56
47716;BME280;33476;50.984;3.538;2023-04-25T04:05:16;101352.41;;;11.19;58.61
47716;BME280;33476;50.984;3.538;2023-04-25T04:07:42;101355.84;;;11.20;58.34
47716;BME280;33476;50.984;3.538;2023-04-25T04:10:09;101362.94;;;11.18;58.75
47716;BME280;33476;50.984;3.538;2023-04-25T04:12:35;101362.97;;;11.16;58.66
47716;BME280;33476;50.984;3.538;2023-04-25T04:15:01;101360.41;;;11.15;58.87
47716;BME280;33476;50.984;3.538;2023-04-25T04:17:28;101369.13;;;11.15;59.00
47716;BME280;33476;50.984;3.538;2023-04-25T04:19:53;101370.81;;;11.16;58.94
47716;BME280;33476;50.984;3.538;2023-04-25T04:22:18;101373.56;;;11.13;58.89
47716;BME280;33476;50.984;3.538;2023-04-25T04:24:44;101373.56;;;11.13;58.62
47716;BME280;33476;50.984;3.538;2023-04-25T04:27:11;101383.94;;;11.15;58.73
47716;BME280;33476;50.984;3.538;2023-04-25T04:29:38;101388.25;;;11.16;58.67
47716;BME280;33476;50.984;3.538;2023-04-25T04:32:03;101379.56;;;11.15;58.77
47716;BME280;33476;50.984;3.538;2023-04-25T04:34:29;101386.63;;;11.13;58.57
47716;BME280;33476;50.984;3.538;2023-04-25T04:36:56;101392.78;;;11.12;58.27
47716;BME280;33476;50.984;3.538;2023-04-25T04:39:21;101393.81;;;11.08;58.54
47716;BME280;33476;50.984;3.538;2023-04-25T04:41:47;101395.56;;;11.08;58.53
47716;BME280;33476;50.984;3.538;2023-04-25T04:44:12;101394.00;;;11.04;58.41
47716;BME280;33476;50.984;3.538;2023-04-25T04:46:39;101403.69;;;11.02;58.19
47716;BME280;33476;50.984;3.538;2023-04-25T04:49:05;101401.09;;;11.00;58.15
47716;BME280;33476;50.984;3.538;2023-04-25T04:51:31;101405.44;;;11.01;58.04
47716;BME280;33476;50.984;3.538;2023-04-25T04:53:58;101410.72;;;11.00;57.72
47716;BME280;33476;50.984;3.538;2023-04-25T04:56:27;101409.16;;;10.95;57.58
47716;BME280;33476;50.984;3.538;2023-04-25T04:58:53;101410.13;;;10.93;57.08
47716;BME280;33476;50.984;3.538;2023-04-25T05:01:18;101397.00;;;10.94;56.73
47716;BME280;33476;50.984;3.538;2023-04-25T05:03:44;101404.84;;;10.94;56.23
47716;BME280;33476;50.984;3.538;2023-04-25T05:06:09;101396.06;;;10.95;55.87
47716;BME280;33476;50.984;3.538;2023-04-25T05:08:35;101396.78;;;10.99;55.73
47716;BME280;33476;50.984;3.538;2023-04-25T05:11:01;101402.03;;;10.99;55.44
47716;BME280;33476;50.984;3.538;2023-04-25T05:13:26;101414.13;;;11.02;55.48
47716;BME280;33476;50.984;3.538;2023-04-25T05:15:52;101405.44;;;11.01;55.11
47716;BME280;33476;50.984;3.538;2023-04-25T05:18:17;101409.75;;;11.02;55.06
47716;BME280;33476;50.984;3.538;2023-04-25T05:20:42;101415.84;;;11.03;54.98
47716;BME280;33476;50.984;3.538;2023-04-25T05:23:08;101416.69;;;11.03;54.79
47716;BME280;33476;50.984;3.538;2023-04-25T05:25:34;101422.69;;;11.05;54.89
47716;BME280;33476;50.984;3.538;2023-04-25T05:27:59;101427.84;;;11.07;54.83
47716;BME280;33476;50.984;3.538;2023-04-25T05:30:25;101432.06;;;11.11;54.66
47716;BME280;33476;50.984;3.538;2023-04-25T05:32:50;101429.44;;;11.11;54.55
47716;BME280;33476;50.984;3.538;2023-04-25T05:35:16;101442.38;;;11.14;54.39
47716;BME280;33476;50.984;3.538;2023-04-25T05:37:41;101446.63;;;11.16;54.28
47716;BME280;33476;50.984;3.538;2023-04-25T05:40:08;101447.53;;;11.15;54.22
47716;BME280;33476;50.984;3.538;2023-04-25T05:42:34;101450.06;;;11.18;54.38
47716;BME280;33476;50.984;3.538;2023-04-25T05:44:59;101447.31;;;11.21;54.00
47716;BME280;33476;50.984;3.538;2023-04-25T05:47:26;101454.16;;;11.24;53.99
47716;BME280;33476;50.984;3.538;2023-04-25T05:49:51;101457.59;;;11.26;54.12
47716;BME280;33476;50.984;3.538;2023-04-25T05:52:16;101470.59;;;11.28;54.26
47716;BME280;33476;50.984;3.538;2023-04-25T05:54:42;101465.38;;;11.28;54.20
47716;BME280;33476;50.984;3.538;2023-04-25T05:57:07;101481.06;;;11.28;54.57
47716;BME280;33476;50.984;3.538;2023-04-25T05:59:32;101480.22;;;11.27;54.81
47716;BME280;33476;50.984;3.538;2023-04-25T06:01:58;101484.53;;;11.28;54.58
47716;BME280;33476;50.984;3.538;2023-04-25T06:04:23;101491.53;;;11.28;54.58
47716;BME280;33476;50.984;3.538;2023-04-25T06:06:49;101496.63;;;11.31;54.57
47716;BME280;33476;50.984;3.538;2023-04-25T06:09:14;101493.09;;;11.32;54.74
47716;BME280;33476;50.984;3.538;2023-04-25T06:11:39;101493.91;;;11.34;54.88
47716;BME280;33476;50.984;3.538;2023-04-25T06:14:05;101493.69;;;11.38;54.93
47716;BME280;33476;50.984;3.538;2023-04-25T06:16:31;101485.84;;;11.38;54.72
47716;BME280;33476;50.984;3.538;2023-04-25T06:18:56;101490.94;;;11.41;54.75
47716;BME280;33476;50.984;3.538;2023-04-25T06:21:22;101497.84;;;11.44;54.96
47716;BME280;33476;50.984;3.538;2023-04-25T06:23:47;101501.06;;;11.50;54.84
47716;BME280;33476;50.984;3.538;2023-04-25T06:26:12;101500.84;;;11.55;54.70
47716;BME280;33476;50.984;3.538;2023-04-25T06:28:38;101513.69;;;11.61;54.36
47716;BME280;33476;50.984;3.538;2023-04-25T06:31:03;101511.84;;;11.63;54.18
47716;BME280;33476;50.984;3.538;2023-04-25T06:33:28;101512.00;;;11.60;53.96
47716;BME280;33476;50.984;3.538;2023-04-25T06:35:54;101513.69;;;11.61;53.95
47716;BME280;33476;50.984;3.538;2023-04-25T06:38:19;101518.78;;;11.64;53.81
47716;BME280;33476;50.984;3.538;2023-04-25T06:40:45;101522.06;;;11.69;53.82
47716;BME280;33476;50.984;3.538;2023-04-25T06:43:10;101518.53;;;11.70;53.79
47716;BME280;33476;50.984;3.538;2023-04-25T06:45:36;101523.56;;;11.75;53.76
47716;BME280;33476;50.984;3.538;2023-04-25T06:48:01;101529.63;;;11.77;53.87
47716;BME280;33476;50.984;3.538;2023-04-25T06:50:26;101531.38;;;11.76;53.79
47716;BME280;33476;50.984;3.538;2023-04-25T06:52:52;101528.63;;;11.79;53.92
47716;BME280;33476;50.984;3.538;2023-04-25T06:55:17;101531.97;;;11.83;54.07
47716;BME280;33476;50.984;3.538;2023-04-25T06:57:43;101531.03;;;11.86;53.90
47716;BME280;33476;50.984;3.538;2023-04-25T07:00:09;101540.38;;;11.91;54.01
47716;BME280;33476;50.984;3.538;2023-04-25T07:02:35;101542.75;;;11.97;53.80
47716;BME280;33476;50.984;3.538;2023-04-25T07:05:01;101544.31;;;12.01;53.83
47716;BME280;33476;50.984;3.538;2023-04-25T07:07:29;101544.97;;;12.06;53.49
47716;BME280;33476;50.984;3.538;2023-04-25T07:09:55;101546.66;;;12.07;53.55
47716;BME280;33476;50.984;3.538;2023-04-25T07:12:20;101554.34;;;12.12;53.25
47716;BME280;33476;50.984;3.538;2023-04-25T07:14:46;101566.31;;;12.18;53.10
47716;BME280;33476;50.984;3.538;2023-04-25T07:17:11;101560.09;;;12.20;53.24
47716;BME280;33476;50.984;3.538;2023-04-25T07:19:37;101563.38;;;12.25;53.29
47716;BME280;33476;50.984;3.538;2023-04-25T07:22:05;101566.63;;;12.30;53.22
47716;BME280;33476;50.984;3.538;2023-04-25T07:24:30;101570.03;;;12.32;52.81
47716;BME280;33476;50.984;3.538;2023-04-25T07:26:56;101573.47;;;12.34;52.61
47716;BME280;33476;50.984;3.538;2023-04-25T07:29:21;101572.41;;;12.38;53.25
47716;BME280;33476;50.984;3.538;2023-04-25T07:31:47;101575.59;;;12.45;52.85
47716;BME280;33476;50.984;3.538;2023-04-25T07:34:13;101577.03;;;12.52;53.01
47716;BME280;33476;50.984;3.538;2023-04-25T07:36:38;101574.16;;;12.58;52.71
47716;BME280;33476;50.984;3.538;2023-04-25T07:39:03;101568.69;;;12.63;52.31
47716;BME280;33476;50.984;3.538;2023-04-25T07:41:29;101564.22;;;12.65;52.08
47716;BME280;33476;50.984;3.538;2023-04-25T07:43:54;101558.66;;;12.73;51.86
47716;BME280;33476;50.984;3.538;2023-04-25T07:46:19;101566.66;;;12.88;51.86
47716;BME280;33476;50.984;3.538;2023-04-25T07:48:45;101573.16;;;13.00;50.95
47716;BME280;33476;50.984;3.538;2023-04-25T07:51:10;101568.53;;;13.05;50.70
47716;BME280;33476;50.984;3.538;2023-04-25T07:53:35;101579.66;;;13.10;50.31
47716;BME280;33476;50.984;3.538;2023-04-25T07:56:02;101585.41;;;13.18;50.59
47716;BME280;33476;50.984;3.538;2023-04-25T07:58:28;101589.41;;;13.27;50.26
47716;BME280;33476;50.984;3.538;2023-04-25T08:00:53;101591.38;;;13.41;49.50
47716;BME280;33476;50.984;3.538;2023-04-25T08:03:19;101593.69;;;13.47;49.01
47716;BME280;33476;50.984;3.538;2023-04-25T08:05:45;101595.22;;;13.34;48.38
47716;BME280;33476;50.984;3.538;2023-04-25T08:08:10;101599.16;;;13.24;48.83
47716;BME280;33476;50.984;3.538;2023-04-25T08:10:36;101608.22;;;13.16;49.49
47716;BME280;33476;50.984;3.538;2023-04-25T08:13:01;101617.50;;;13.05;48.99
47716;BME280;33476;50.984;3.538;2023-04-25T08:15:27;101612.75;;;12.94;48.67
47716;BME280;33476;50.984;3.538;2023-04-25T08:17:53;101619.00;;;12.91;48.75
47716;BME280;33476;50.984;3.538;2023-04-25T08:20:18;101619.00;;;12.91;48.91
47716;BME280;33476;50.984;3.538;2023-04-25T08:22:43;101628.34;;;12.97;48.45
47716;BME280;33476;50.984;3.538;2023-04-25T08:25:09;101636.00;;;13.02;48.18
47716;BME280;33476;50.984;3.538;2023-04-25T08:27:34;101640.25;;;13.04;48.25
47716;BME280;33476;50.984;3.538;2023-04-25T08:30:00;101639.47;;;13.02;48.04
47716;BME280;33476;50.984;3.538;2023-04-25T08:32:26;101648.19;;;13.03;47.90
47716;BME280;33476;50.984;3.538;2023-04-25T08:34:51;101646.22;;;13.08;48.00
47716;BME280;33476;50.984;3.538;2023-04-25T08:37:19;101634.66;;;13.12;47.46
47716;BME280;33476;50.984;3.538;2023-04-25T08:39:45;101636.97;;;13.19;47.85
47716;BME280;33476;50.984;3.538;2023-04-25T08:42:12;101642.22;;;13.38;47.53
47716;BME280;33476;50.984;3.538;2023-04-25T08:44:37;101640.72;;;13.52;47.23
47716;BME280;33476;50.984;3.538;2023-04-25T08:47:04;101646.47;;;13.60;46.55
47716;BME280;33476;50.984;3.538;2023-04-25T08:49:33;101635.72;;;13.64;46.90
47716;BME280;33476;50.984;3.538;2023-04-25T08:52:03;101647.38;;;13.77;46.49
47716;BME280;33476;50.984;3.538;2023-04-25T08:54:32;101651.41;;;13.85;46.57
47716;BME280;33476;50.984;3.538;2023-04-25T08:57:01;101661.28;;;13.97;46.33
47716;BME280;33476;50.984;3.538;2023-04-25T08:59:32;101659.41;;;14.18;46.76
47716;BME280;33476;50.984;3.538;2023-04-25T09:01:58;101661.09;;;14.36;46.32
47716;BME280;33476;50.984;3.538;2023-04-25T09:04:23;101667.63;;;14.46;45.31
47716;BME280;33476;50.984;3.538;2023-04-25T09:06:48;101665.94;;;14.45;45.33
47716;BME280;33476;50.984;3.538;2023-04-25T09:09:14;101674.88;;;14.41;45.41
47716;BME280;33476;50.984;3.538;2023-04-25T09:11:39;101670.59;;;14.39;46.03
47716;BME280;33476;50.984;3.538;2023-04-25T09:14:15;101684.28;;;14.28;45.00
47716;BME280;33476;50.984;3.538;2023-04-25T09:19:35;101693.09;;;14.10;46.10
47716;BME280;33476;50.984;3.538;2023-04-25T09:22:02;101696.47;;;14.12;46.21
47716;BME280;33476;50.984;3.538;2023-04-25T09:27:06;101708.66;;;13.95;46.86
47716;BME280;33476;50.984;3.538;2023-04-25T09:29:37;101718.75;;;13.86;46.25
47716;BME280;33476;50.984;3.538;2023-04-25T09:32:19;101715.47;;;13.81;46.33
47716;BME280;33476;50.984;3.538;2023-04-25T09:34:50;101718.38;;;13.93;46.16
47716;BME280;33476;50.984;3.538;2023-04-25T09:37:27;101712.59;;;14.04;45.40
47716;BME280;33476;50.984;3.538;2023-04-25T09:39:55;101718.69;;;14.23;45.38
47716;BME280;33476;50.984;3.538;2023-04-25T09:42:25;101727.06;;;14.31;45.56
47716;BME280;33476;50.984;3.538;2023-04-25T09:44:52;101725.31;;;14.49;45.61
47716;BME280;33476;50.984;3.538;2023-04-25T09:47:18;101731.50;;;14.48;45.16
47716;BME280;33476;50.984;3.538;2023-04-25T09:49:46;101736.09;;;14.43;45.58
47716;BME280;33476;50.984;3.538;2023-04-25T09:52:17;101733.84;;;14.36;46.05
47716;BME280;33476;50.984;3.538;2023-04-25T09:54:47;101741.88;;;14.32;45.79
47716;BME280;33476;50.984;3.538;2023-04-25T09:57:14;101749.78;;;14.32;46.23
47716;BME280;33476;50.984;3.538;2023-04-25T09:59:45;101748.38;;;14.25;46.31
47716;BME280;33476;50.984;3.538;2023-04-25T10:02:11;101752.25;;;14.36;46.37
47716;BME280;33476;50.984;3.538;2023-04-25T10:04:37;101760.78;;;14.22;45.76
47716;BME280;33476;50.984;3.538;2023-04-25T10:07:05;101761.16;;;14.14;45.92
47716;BME280;33476;50.984;3.538;2023-04-25T10:09:32;101765.56;;;14.14;45.38
47716;BME280;33476;50.984;3.538;2023-04-25T10:11:59;101768.41;;;14.09;46.05
47716;BME280;33476;50.984;3.538;2023-04-25T10:14:26;101771.88;;;14.10;46.17
47716;BME280;33476;50.984;3.538;2023-04-25T10:16:52;101777.16;;;14.10;46.10
47716;BME280;33476;50.984;3.538;2023-04-25T10:19:19;101772.13;;;14.22;46.53
47716;BME280;33476;50.984;3.538;2023-04-25T10:21:52;101762.75;;;14.36;46.73
47716;BME280;33476;50.984;3.538;2023-04-25T10:24:18;101757.84;;;14.64;45.99
47716;BME280;33476;50.984;3.538;2023-04-25T10:26:44;101761.97;;;14.87;45.07
47716;BME280;33476;50.984;3.538;2023-04-25T10:29:10;101753.59;;;14.96;44.01
47716;BME280;33476;50.984;3.538;2023-04-25T10:31:45;101768.06;;;15.05;42.98
47716;BME280;33476;50.984;3.538;2023-04-25T10:34:10;101773.72;;;15.14;42.80
47716;BME280;33476;50.984;3.538;2023-04-25T10:36:36;101777.88;;;15.18;41.93
47716;BME280;33476;50.984;3.538;2023-04-25T10:39:04;101790.41;;;15.13;41.39
47716;BME280;33476;50.984;3.538;2023-04-25T10:41:48;101782.53;;;15.13;41.48
47716;BME280;33476;50.984;3.538;2023-04-25T10:44:16;101781.06;;;15.25;41.55
47716;BME280;33476;50.984;3.538;2023-04-25T10:46:44;101773.28;;;15.39;41.85
47716;BME280;33476;50.984;3.538;2023-04-25T10:49:09;101788.88;;;15.60;42.00
47716;BME280;33476;50.984;3.538;2023-04-25T10:51:36;101785.94;;;15.66;41.82
47716;BME280;33476;50.984;3.538;2023-04-25T10:54:06;101785.84;;;15.67;41.64
47716;BME280;33476;50.984;3.538;2023-04-25T10:56:38;101787.41;;;15.87;41.94
47716;BME280;33476;50.984;3.538;2023-04-25T10:59:13;101784.09;;;15.99;41.58
47716;BME280;33476;50.984;3.538;2023-04-25T11:01:46;101783.50;;;16.10;41.35
47716;BME280;33476;50.984;3.538;2023-04-25T11:04:32;101776.09;;;16.17;41.21
47716;BME280;33476;50.984;3.538;2023-04-25T11:07:13;101771.44;;;16.22;41.03
47716;BME280;33476;50.984;3.538;2023-04-25T11:09:40;101777.88;;;16.32;40.82
47716;BME280;33476;50.984;3.538;2023-04-25T11:12:08;101782.78;;;16.38;41.17
47716;BME280;33476;50.984;3.538;2023-04-25T11:14:33;101776.94;;;16.33;40.82
47716;BME280;33476;50.984;3.538;2023-04-25T11:17:00;101777.03;;;16.32;41.02
47716;BME280;33476;50.984;3.538;2023-04-25T11:19:28;101772.34;;;16.37;41.15
47716;BME280;33476;50.984;3.538;2023-04-25T11:21:58;101784.06;;;16.47;41.15
47716;BME280;33476;50.984;3.538;2023-04-25T11:26:53;101788.41;;;16.48;40.35
47716;BME280;33476;50.984;3.538;2023-04-25T11:29:27;101789.19;;;16.34;39.88
47716;BME280;33476;50.984;3.538;2023-04-25T11:31:54;101784.09;;;16.31;40.38
47716;BME280;33476;50.984;3.538;2023-04-25T11:34:23;101773.63;;;16.29;40.38
47716;BME280;33476;50.984;3.538;2023-04-25T11:36:50;101778.97;;;16.28;40.88
47716;BME280;33476;50.984;3.538;2023-04-25T11:39:15;101783.41;;;16.27;40.53
47716;BME280;33476;50.984;3.538;2023-04-25T11:41:41;101778.75;;;16.17;39.82
47716;BME280;33476;50.984;3.538;2023-04-25T11:44:07;101787.69;;;15.98;38.97
47716;BME280;33476;50.984;3.538;2023-04-25T11:46:36;101782.19;;;15.70;38.82
47716;BME280;33476;50.984;3.538;2023-04-25T11:49:02;101785.47;;;15.58;39.25
47716;BME280;33476;50.984;3.538;2023-04-25T11:51:27;101790.28;;;15.50;39.61
47716;BME280;33476;50.984;3.538;2023-04-25T11:53:53;101789.34;;;15.51;39.59
47716;BME280;33476;50.984;3.538;2023-04-25T11:56:18;101786.09;;;15.45;39.42
47716;BME280;33476;50.984;3.538;2023-04-25T11:59:02;101782.19;;;15.37;39.65
47716;BME280;33476;50.984;3.538;2023-04-25T12:01:32;101785.34;;;15.43;39.71
47716;BME280;33476;50.984;3.538;2023-04-25T12:03:58;101787.97;;;15.43;39.56
47716;BME280;33476;50.984;3.538;2023-04-25T12:06:27;101787.13;;;15.43;40.49
47716;BME280;33476;50.984;3.538;2023-04-25T12:09:03;101792.22;;;15.46;40.26
47716;BME280;33476;50.984;3.538;2023-04-25T12:11:32;101788.81;;;15.44;39.93
47716;BME280;33476;50.984;3.538;2023-04-25T12:14:04;101793.16;;;15.45;39.34
47716;BME280;33476;50.984;3.538;2023-04-25T12:16:45;101785.44;;;15.42;39.26
47716;BME280;33476;50.984;3.538;2023-04-25T12:19:15;101790.69;;;15.42;39.20
47716;BME280;33476;50.984;3.538;2023-04-25T12:21:41;101791.91;;;15.52;39.71
47716;BME280;33476;50.984;3.538;2023-04-25T12:24:16;101788.56;;;15.66;39.80
47716;BME280;33476;50.984;3.538;2023-04-25T12:26:50;101800.84;;;15.83;39.41
47716;BME280;33476;50.984;3.538;2023-04-25T12:29:20;101800.00;;;15.82;38.26
47716;BME280;33476;50.984;3.538;2023-04-25T12:31:46;101804.56;;;15.79;38.89
47716;BME280;33476;50.984;3.538;2023-04-25T12:34:12;101803.97;;;15.73;39.09
47716;BME280;33476;50.984;3.538;2023-04-25T12:36:37;101813.22;;;15.65;39.19
47716;BME280;33476;50.984;3.538;2023-04-25T12:39:03;101812.13;;;15.52;39.65
47716;BME280;33476;50.984;3.538;2023-04-25T12:41:29;101814.97;;;15.47;39.99
47716;BME280;33476;50.984;3.538;2023-04-25T12:43:55;101820.34;;;15.45;39.84
47716;BME280;33476;50.984;3.538;2023-04-25T12:46:21;101806.84;;;15.52;39.90
47716;BME280;33476;50.984;3.538;2023-04-25T12:48:48;101807.69;;;15.69;40.11
47716;BME280;33476;50.984;3.538;2023-04-25T12:51:13;101818.06;;;15.88;39.52
47716;BME280;33476;50.984;3.538;2023-04-25T12:53:38;101807.91;;;15.98;39.62
47716;BME280;33476;50.984;3.538;2023-04-25T12:56:08;101807.97;;;15.96;39.23